Westrac — WTH4325 — position and weather

sailwx.info

Track history (hours):
 
Tides and Currents Weather Stations Pressure Air Temp Water Temp Dewpoint Dewpoint Depression Visibility Wind Speed Wind Dir Waves Ship Positions

Westrac

Owner: WESTERN TOWBOAT CO, SEATTLE, WA. More information available from US FCC via Universal Licensing System and Coast Guard Vessel Documentation Center.

Last reported at 2015-Aug-28 01:33 UTC. Time now 2015-Aug-28 09:33 UTC.
Position N 47°33' W 122°20'.

Length 23 m; draft 5 m.

Type: Tug. MMSI: 366993010.

Date/timePositionNaut miles runAvg speedWind from/ knotsBaromVisibWave heightAir tempDewpointWater temp
2015-Aug-28 01:33N 47°33' W 122°20'3 2.9
2015-Aug-28 00:33N 47°35' W 122°22'0 0.2
2015-Aug-27 23:33N 47°35' W 122°21'0 0.1
2015-Aug-27 22:34N 47°35' W 122°21'2 1.5
2015-Aug-27 21:33N 47°34' W 122°21'0 0.3
2015-Aug-27 20:32N 47°34' W 122°21'0 0.0
2015-Aug-27 19:32N 47°34' W 122°21'1 0.9
2015-Aug-27 18:32N 47°33' W 122°21'2 2.1
2015-Aug-27 17:33N 47°35' W 122°21'0 0.1
2015-Aug-27 16:33N 47°35' W 122°21'1 1.0
2015-Aug-27 15:33N 47°34' W 122°21'0 0.0
2015-Aug-27 01:33N 47°34' W 122°21'1 1.0
2015-Aug-27 00:33N 47°35' W 122°21'1 1.2
2015-Aug-26 23:33N 47°34' W 122°21'1 0.5
2015-Aug-26 22:33N 47°34' W 122°21'1 1.3
2015-Aug-26 21:33N 47°35' W 122°22'2 2.1
2015-Aug-26 20:33N 47°36' W 122°24'1 1.3
2015-Aug-26 19:33N 47°35' W 122°22'0 0.0
2015-Aug-26 18:33N 47°35' W 122°22'1 0.8
2015-Aug-26 17:33N 47°35' W 122°22'2 2.4
2015-Aug-26 16:33N 47°33' W 122°20'3 2.8
2015-Aug-26 15:33N 47°35' W 122°21'2 1.6
2015-Aug-26 14:33N 47°34' W 122°21'2 0.1
2015-Aug-25 17:33N 47°35' W 122°21'0 0.1
2015-Aug-25 16:33N 47°35' W 122°21'0 0.3
2015-Aug-25 15:33N 47°35' W 122°21'0 0.1
2015-Aug-25 14:33N 47°35' W 122°22'2 1.7
2015-Aug-25 13:33N 47°33' W 122°21'3 2.8
2015-Aug-25 12:33N 47°36' W 122°23'2 0.2
2015-Aug-24 23:17N 47°34' W 122°21'1 1.7
2015-Aug-24 22:33N 47°35' W 122°21'1 1.1
2015-Aug-24 21:29N 47°34' W 122°21'0 0.0
2015-Aug-24 20:29N 47°34' W 122°21'0 0.0
2015-Aug-24 19:33N 47°34' W 122°21'0 0.0
2015-Aug-24 18:30N 47°34' W 122°21'1 1.4
2015-Aug-24 17:33N 47°33' W 122°20'2 2.5
2015-Aug-24 16:34N 47°35' W 122°22'1 1.2
2015-Aug-24 15:33N 47°34' W 122°21'1 1.0
2015-Aug-24 14:33N 47°35' W 122°22'2 0.1
2015-Aug-23 16:17N 47°33' W 122°20'3 4.0
2015-Aug-23 15:33N 47°35' W 122°22'2 1.5
2015-Aug-23 14:33N 47°34' W 122°21'1 0.0
2015-Aug-22 16:33N 47°34' W 122°21'1 0.6
2015-Aug-22 15:32N 47°34' W 122°21'0 0.0
2015-Aug-22 05:26N 47°34' W 122°21'0 0.4
2015-Aug-22 04:33N 47°34' W 122°21'1 1.1
2015-Aug-22 03:33N 47°33' W 122°21'1 0.7
2015-Aug-22 02:32N 47°34' W 122°21'2 1.0
2015-Aug-22 00:33N 47°36' W 122°21'1 0.8
2015-Aug-21 23:33N 47°35' W 122°21'0 0.1
2015-Aug-21 22:32N 47°35' W 122°22'1 1.1
2015-Aug-21 21:33N 47°34' W 122°21'0 0.4
2015-Aug-21 20:33N 47°34' W 122°21'1 0.6
2015-Aug-21 19:33N 47°34' W 122°21'1 0.6
2015-Aug-21 18:33N 47°34' W 122°21'0 0.2
2015-Aug-21 17:33N 47°34' W 122°21'0 0.3
2015-Aug-21 16:33N 47°34' W 122°21'2 2.0
2015-Aug-21 15:33N 47°36' W 122°22'1 0.1
2015-Aug-20 21:34N 47°35' W 122°22'2 2.4
2015-Aug-20 20:34N 47°33' W 122°20'0 0.1
2015-Aug-20 19:24N 47°33' W 122°20'2 2.8
2015-Aug-20 18:33N 47°35' W 122°22'1 0.6
2015-Aug-20 17:33N 47°35' W 122°22'2 1.9
2015-Aug-20 16:33N 47°36' W 122°23'3 3.2
2015-Aug-20 15:33N 47°33' W 122°21'0 0.0
2015-Aug-20 14:34N 47°33' W 122°21'0 0.0
2015-Aug-20 13:33N 47°33' W 122°21'1 0.7
2015-Aug-20 12:34N 47°34' W 122°21'0 0.0
2015-Aug-20 02:25N 47°34' W 122°21'1 0.7
2015-Aug-20 01:33N 47°33' W 122°21'1 1.4
2015-Aug-20 00:33N 47°32' W 122°20'2 2.0
2015-Aug-19 23:33N 47°34' W 122°21'0 0.0
2015-Aug-19 22:33N 47°34' W 122°21'0 0.0
2015-Aug-19 21:33N 47°34' W 122°21'0 0.0
2015-Aug-19 20:33N 47°34' W 122°21'1 0.9
2015-Aug-19 19:33N 47°33' W 122°21'1 0.9
2015-Aug-19 18:33N 47°34' W 122°21'0 0.0
2015-Aug-19 17:33N 47°34' W 122°21'1 1.4
2015-Aug-19 16:33N 47°33' W 122°20'1 1.3
2015-Aug-19 15:33N 47°34' W 122°21'0 0.3
2015-Aug-19 14:33N 47°34' W 122°21'0 0.0
2015-Aug-18 22:34N 47°33' W 122°21'2 2.2
2015-Aug-18 21:33N 47°35' W 122°21'3 2.8
2015-Aug-18 20:32N 47°33' W 122°20'0 0.1
2015-Aug-18 19:32N 47°33' W 122°20'0 0.4
2015-Aug-18 18:31N 47°33' W 122°20'2 2.4
2015-Aug-18 17:33N 47°35' W 122°22'4 3.7
2015-Aug-18 16:33N 47°32' W 122°19'3 2.8
2015-Aug-18 15:33N 47°34' W 122°21'0 0.4
2015-Aug-18 14:34N 47°34' W 122°21'0 0.2
2015-Aug-18 13:33N 47°34' W 122°21'0 0.0
2015-Aug-18 12:33N 47°34' W 122°21'0 0.0
2015-Aug-18 11:33N 47°34' W 122°21'1 1.2
2015-Aug-18 10:33N 47°35' W 122°21'  
Track history (hours):
 
Tides and Currents Weather Stations Pressure Air Temp Water Temp Dewpoint Dewpoint Depression Visibility Wind Speed Wind Dir Waves Ship Positions

Westrac

Owner: WESTERN TOWBOAT CO, SEATTLE, WA. More information available from US FCC via Universal Licensing System and Coast Guard Vessel Documentation Center.

Last reported at 2015-Aug-28 01:33 UTC. Time now 2015-Aug-28 09:33 UTC.
Position N 47°33' W 122°20'.

Length 23 m; draft 5 m.

Type: Tug. MMSI: 366993010.

Date/timePositionNaut miles runAvg speedWind from/ knotsBaromVisibWave heightAir tempDewpointWater temp
2015-Aug-28 01:33N 47°33' W 122°20'3 2.9
2015-Aug-28 00:33N 47°35' W 122°22'0 0.2
2015-Aug-27 23:33N 47°35' W 122°21'0 0.1
2015-Aug-27 22:34N 47°35' W 122°21'2 1.5
2015-Aug-27 21:33N 47°34' W 122°21'0 0.3
2015-Aug-27 20:32N 47°34' W 122°21'0 0.0
2015-Aug-27 19:32N 47°34' W 122°21'1 0.9
2015-Aug-27 18:32N 47°33' W 122°21'2 2.1
2015-Aug-27 17:33N 47°35' W 122°21'0 0.1
2015-Aug-27 16:33N 47°35' W 122°21'1 1.0
2015-Aug-27 15:33N 47°34' W 122°21'0 0.0
2015-Aug-27 01:33N 47°34' W 122°21'1 1.0
2015-Aug-27 00:33N 47°35' W 122°21'1 1.2
2015-Aug-26 23:33N 47°34' W 122°21'1 0.5
2015-Aug-26 22:33N 47°34' W 122°21'1 1.3
2015-Aug-26 21:33N 47°35' W 122°22'2 2.1
2015-Aug-26 20:33N 47°36' W 122°24'1 1.3
2015-Aug-26 19:33N 47°35' W 122°22'0 0.0
2015-Aug-26 18:33N 47°35' W 122°22'1 0.8
2015-Aug-26 17:33N 47°35' W 122°22'2 2.4
2015-Aug-26 16:33N 47°33' W 122°20'3 2.8
2015-Aug-26 15:33N 47°35' W 122°21'2 1.6
2015-Aug-26 14:33N 47°34' W 122°21'2 0.1
2015-Aug-25 17:33N 47°35' W 122°21'0 0.1
2015-Aug-25 16:33N 47°35' W 122°21'0 0.3
2015-Aug-25 15:33N 47°35' W 122°21'0 0.1
2015-Aug-25 14:33N 47°35' W 122°22'2 1.7
2015-Aug-25 13:33N 47°33' W 122°21'3 2.8
2015-Aug-25 12:33N 47°36' W 122°23'2 0.2
2015-Aug-24 23:17N 47°34' W 122°21'1 1.7
2015-Aug-24 22:33N 47°35' W 122°21'1 1.1
2015-Aug-24 21:29N 47°34' W 122°21'0 0.0
2015-Aug-24 20:29N 47°34' W 122°21'0 0.0
2015-Aug-24 19:33N 47°34' W 122°21'0 0.0
2015-Aug-24 18:30N 47°34' W 122°21'1 1.4
2015-Aug-24 17:33N 47°33' W 122°20'2 2.5
2015-Aug-24 16:34N 47°35' W 122°22'1 1.2
2015-Aug-24 15:33N 47°34' W 122°21'1 1.0
2015-Aug-24 14:33N 47°35' W 122°22'2 0.1
2015-Aug-23 16:17N 47°33' W 122°20'3 4.0
2015-Aug-23 15:33N 47°35' W 122°22'2 1.5
2015-Aug-23 14:33N 47°34' W 122°21'1 0.0
2015-Aug-22 16:33N 47°34' W 122°21'1 0.6
2015-Aug-22 15:32N 47°34' W 122°21'0 0.0
2015-Aug-22 05:26N 47°34' W 122°21'0 0.4
2015-Aug-22 04:33N 47°34' W 122°21'1 1.1
2015-Aug-22 03:33N 47°33' W 122°21'1 0.7
2015-Aug-22 02:32N 47°34' W 122°21'2 1.0
2015-Aug-22 00:33N 47°36' W 122°21'1 0.8
2015-Aug-21 23:33N 47°35' W 122°21'0 0.1
2015-Aug-21 22:32N 47°35' W 122°22'1 1.1
2015-Aug-21 21:33N 47°34' W 122°21'0 0.4
2015-Aug-21 20:33N 47°34' W 122°21'1 0.6
2015-Aug-21 19:33N 47°34' W 122°21'1 0.6
2015-Aug-21 18:33N 47°34' W 122°21'0 0.2
2015-Aug-21 17:33N 47°34' W 122°21'0 0.3
2015-Aug-21 16:33N 47°34' W 122°21'2 2.0
2015-Aug-21 15:33N 47°36' W 122°22'1 0.1
2015-Aug-20 21:34N 47°35' W 122°22'2 2.4
2015-Aug-20 20:34N 47°33' W 122°20'0 0.1
2015-Aug-20 19:24N 47°33' W 122°20'2 2.8
2015-Aug-20 18:33N 47°35' W 122°22'1 0.6
2015-Aug-20 17:33N 47°35' W 122°22'2 1.9
2015-Aug-20 16:33N 47°36' W 122°23'3 3.2
2015-Aug-20 15:33N 47°33' W 122°21'0 0.0
2015-Aug-20 14:34N 47°33' W 122°21'0 0.0
2015-Aug-20 13:33N 47°33' W 122°21'1 0.7
2015-Aug-20 12:34N 47°34' W 122°21'0 0.0
2015-Aug-20 02:25N 47°34' W 122°21'1 0.7
2015-Aug-20 01:33N 47°33' W 122°21'1 1.4
2015-Aug-20 00:33N 47°32' W 122°20'2 2.0
2015-Aug-19 23:33N 47°34' W 122°21'0 0.0
2015-Aug-19 22:33N 47°34' W 122°21'0 0.0
2015-Aug-19 21:33N 47°34' W 122°21'0 0.0
2015-Aug-19 20:33N 47°34' W 122°21'1 0.9
2015-Aug-19 19:33N 47°33' W 122°21'1 0.9
2015-Aug-19 18:33N 47°34' W 122°21'0 0.0
2015-Aug-19 17:33N 47°34' W 122°21'1 1.4
2015-Aug-19 16:33N 47°33' W 122°20'1 1.3
2015-Aug-19 15:33N 47°34' W 122°21'0 0.3
2015-Aug-19 14:33N 47°34' W 122°21'0 0.0
2015-Aug-18 22:34N 47°33' W 122°21'2 2.2
2015-Aug-18 21:33N 47°35' W 122°21'3 2.8
2015-Aug-18 20:32N 47°33' W 122°20'0 0.1
2015-Aug-18 19:32N 47°33' W 122°20'0 0.4
2015-Aug-18 18:31N 47°33' W 122°20'2 2.4
2015-Aug-18 17:33N 47°35' W 122°22'4 3.7
2015-Aug-18 16:33N 47°32' W 122°19'3 2.8
2015-Aug-18 15:33N 47°34' W 122°21'0 0.4
2015-Aug-18 14:34N 47°34' W 122°21'0 0.2
2015-Aug-18 13:33N 47°34' W 122°21'0 0.0
2015-Aug-18 12:33N 47°34' W 122°21'0 0.0
2015-Aug-18 11:33N 47°34' W 122°21'1 1.2
2015-Aug-18 10:33N 47°35' W 122°21'  

Dump ship's entire track history